Terminal Aerodrome Forecast
Issued by NWS

Home | Current Version | Previous Version | Text Only | Print | Product List | Glossary On
Versions: 1 2 3 4 5 6 7 8 9 10 11 12
450
FTUS45 KABQ 260530
TAFFMN
TAF
KFMN 260530Z 2606/2706 30011KT P6SM FEW060
     FM261700 28013G23KT P6SM SCT080
     FM262000 29018G30KT P6SM BKN100
     FM270100 29010KT P6SM BKN080=

USA.gov is the U.S. government's official web portal to all federal, state and local government web resources and services.